sensor_id;sensor_type;location;lat;lon;timestamp;temperature;humidity
19330;DHT22;9799;48.214;16.388;2023-09-19T00:02:06;21.60;99.90
19330;DHT22;9799;48.214;16.388;2023-09-19T00:05:34;21.60;99.90
19330;DHT22;9799;48.214;16.388;2023-09-19T00:08:55;21.50;99.90
19330;DHT22;9799;48.214;16.388;2023-09-19T00:12:18;21.40;99.90
19330;DHT22;9799;48.214;16.388;2023-09-19T00:15:40;21.30;99.90
19330;DHT22;9799;48.214;16.388;2023-09-19T00:19:02;21.20;99.90
19330;DHT22;9799;48.214;16.388;2023-09-19T00:22:25;21.10;99.90
19330;DHT22;9799;48.214;16.388;2023-09-19T00:25:46;21.00;99.90
19330;DHT22;9799;48.214;16.388;2023-09-19T00:29:07;20.90;99.90
19330;DHT22;9799;48.214;16.388;2023-09-19T00:32:29;20.70;99.90
19330;DHT22;9799;48.214;16.388;2023-09-19T00:35:52;20.60;99.90
19330;DHT22;9799;48.214;16.388;2023-09-19T00:39:15;20.50;99.90
19330;DHT22;9799;48.214;16.388;2023-09-19T00:42:36;20.40;99.90
19330;DHT22;9799;48.214;16.388;2023-09-19T00:45:58;20.30;99.90
19330;DHT22;9799;48.214;16.388;2023-09-19T00:49:20;20.10;99.90
19330;DHT22;9799;48.214;16.388;2023-09-19T00:52:42;20.00;99.90
19330;DHT22;9799;48.214;16.388;2023-09-19T00:56:05;20.10;99.90
19330;DHT22;9799;48.214;16.388;2023-09-19T00:59:28;20.00;99.90
19330;DHT22;9799;48.214;16.388;2023-09-19T01:02:49;20.10;99.90
19330;DHT22;9799;48.214;16.388;2023-09-19T01:06:11;19.90;99.90
19330;DHT22;9799;48.214;16.388;2023-09-19T01:09:32;20.00;99.90
19330;DHT22;9799;48.214;16.388;2023-09-19T01:13:05;19.90;99.90
19330;DHT22;9799;48.214;16.388;2023-09-19T01:16:32;19.90;99.90
19330;DHT22;9799;48.214;16.388;2023-09-19T01:20:25;20.00;99.90
19330;DHT22;9799;48.214;16.388;2023-09-19T01:24:19;19.90;99.90
19330;DHT22;9799;48.214;16.388;2023-09-19T01:28:04;19.80;99.90
19330;DHT22;9799;48.214;16.388;2023-09-19T01:31:31;19.90;99.90
19330;DHT22;9799;48.214;16.388;2023-09-19T01:34:57;19.60;99.90
19330;DHT22;9799;48.214;16.388;2023-09-19T01:38:23;19.50;99.90
19330;DHT22;9799;48.214;16.388;2023-09-19T01:41:55;19.60;99.90
19330;DHT22;9799;48.214;16.388;2023-09-19T01:45:26;19.60;99.90
19330;DHT22;9799;48.214;16.388;2023-09-19T01:49:03;19.40;99.90
19330;DHT22;9799;48.214;16.388;2023-09-19T01:52:30;19.40;99.90
19330;DHT22;9799;48.214;16.388;2023-09-19T01:55:54;19.40;99.90
19330;DHT22;9799;48.214;16.388;2023-09-19T01:59:20;19.20;99.90
19330;DHT22;9799;48.214;16.388;2023-09-19T02:02:45;19.10;99.90
19330;DHT22;9799;48.214;16.388;2023-09-19T02:06:08;19.20;99.90
19330;DHT22;9799;48.214;16.388;2023-09-19T02:09:34;19.30;99.90
19330;DHT22;9799;48.214;16.388;2023-09-19T02:12:58;19.20;99.90
19330;DHT22;9799;48.214;16.388;2023-09-19T02:16:20;19.20;99.90
19330;DHT22;9799;48.214;16.388;2023-09-19T02:19:41;19.20;99.90
19330;DHT22;9799;48.214;16.388;2023-09-19T02:23:04;19.20;99.90
19330;DHT22;9799;48.214;16.388;2023-09-19T02:26:25;19.20;99.90
19330;DHT22;9799;48.214;16.388;2023-09-19T02:29:47;19.20;99.90
19330;DHT22;9799;48.214;16.388;2023-09-19T02:33:09;19.10;99.90
19330;DHT22;9799;48.214;16.388;2023-09-19T02:36:30;19.10;99.90
19330;DHT22;9799;48.214;16.388;2023-09-19T02:39:53;19.20;99.90
19330;DHT22;9799;48.214;16.388;2023-09-19T02:43:14;19.10;99.90
19330;DHT22;9799;48.214;16.388;2023-09-19T02:46:36;19.10;99.90
19330;DHT22;9799;48.214;16.388;2023-09-19T02:49:58;19.20;99.90
19330;DHT22;9799;48.214;16.388;2023-09-19T02:53:21;19.40;99.90
19330;DHT22;9799;48.214;16.388;2023-09-19T02:56:45;19.40;99.90
19330;DHT22;9799;48.214;16.388;2023-09-19T03:00:07;19.40;99.90
19330;DHT22;9799;48.214;16.388;2023-09-19T03:03:30;19.40;99.90
19330;DHT22;9799;48.214;16.388;2023-09-19T03:06:51;19.50;99.90
19330;DHT22;9799;48.214;16.388;2023-09-19T03:10:16;19.50;99.90
19330;DHT22;9799;48.214;16.388;2023-09-19T03:13:39;19.50;99.90
19330;DHT22;9799;48.214;16.388;2023-09-19T03:17:02;19.50;99.90
19330;DHT22;9799;48.214;16.388;2023-09-19T03:20:24;19.60;99.90
19330;DHT22;9799;48.214;16.388;2023-09-19T03:23:47;19.50;99.90
19330;DHT22;9799;48.214;16.388;2023-09-19T03:27:09;19.50;99.90
19330;DHT22;9799;48.214;16.388;2023-09-19T03:30:31;19.50;99.90
19330;DHT22;9799;48.214;16.388;2023-09-19T03:33:53;19.60;99.90
19330;DHT22;9799;48.214;16.388;2023-09-19T03:37:14;19.50;99.90
19330;DHT22;9799;48.214;16.388;2023-09-19T03:40:36;19.50;99.90
19330;DHT22;9799;48.214;16.388;2023-09-19T03:43:57;19.60;99.90
19330;DHT22;9799;48.214;16.388;2023-09-19T03:47:21;19.60;99.90
19330;DHT22;9799;48.214;16.388;2023-09-19T03:50:42;19.50;99.90
19330;DHT22;9799;48.214;16.388;2023-09-19T03:54:04;19.50;99.90
19330;DHT22;9799;48.214;16.388;2023-09-19T03:57:25;19.50;99.90
19330;DHT22;9799;48.214;16.388;2023-09-19T04:00:46;19.40;99.90
19330;DHT22;9799;48.214;16.388;2023-09-19T04:04:09;19.40;99.90
19330;DHT22;9799;48.214;16.388;2023-09-19T04:07:30;19.40;99.90
19330;DHT22;9799;48.214;16.388;2023-09-19T04:10:51;19.40;99.90
19330;DHT22;9799;48.214;16.388;2023-09-19T04:14:13;19.40;99.90
19330;DHT22;9799;48.214;16.388;2023-09-19T04:17:34;19.40;99.90
19330;DHT22;9799;48.214;16.388;2023-09-19T04:20:57;19.40;99.90
19330;DHT22;9799;48.214;16.388;2023-09-19T04:24:18;19.40;99.90
19330;DHT22;9799;48.214;16.388;2023-09-19T04:27:40;19.40;99.90
19330;DHT22;9799;48.214;16.388;2023-09-19T04:31:01;19.40;99.90
19330;DHT22;9799;48.214;16.388;2023-09-19T04:34:23;19.40;99.90
19330;DHT22;9799;48.214;16.388;2023-09-19T04:37:45;19.30;99.90
19330;DHT22;9799;48.214;16.388;2023-09-19T04:41:07;19.40;99.90
19330;DHT22;9799;48.214;16.388;2023-09-19T04:44:28;19.40;99.90
19330;DHT22;9799;48.214;16.388;2023-09-19T04:47:49;19.30;99.90
19330;DHT22;9799;48.214;16.388;2023-09-19T04:51:10;19.40;99.90
19330;DHT22;9799;48.214;16.388;2023-09-19T04:54:34;19.30;99.90
19330;DHT22;9799;48.214;16.388;2023-09-19T04:57:56;19.20;99.90
19330;DHT22;9799;48.214;16.388;2023-09-19T05:01:17;19.20;99.90
19330;DHT22;9799;48.214;16.388;2023-09-19T05:04:38;19.20;99.90
19330;DHT22;9799;48.214;16.388;2023-09-19T05:07:59;19.30;99.90
19330;DHT22;9799;48.214;16.388;2023-09-19T05:11:29;19.20;99.90
19330;DHT22;9799;48.214;16.388;2023-09-19T05:14:50;19.20;99.90
19330;DHT22;9799;48.214;16.388;2023-09-19T05:18:12;19.10;99.90
19330;DHT22;9799;48.214;16.388;2023-09-19T05:21:33;19.20;99.90
19330;DHT22;9799;48.214;16.388;2023-09-19T05:24:54;19.20;99.90
19330;DHT22;9799;48.214;16.388;2023-09-19T05:28:17;19.10;99.90
19330;DHT22;9799;48.214;16.388;2023-09-19T05:31:41;19.00;99.90
19330;DHT22;9799;48.214;16.388;2023-09-19T05:35:03;18.90;99.90
19330;DHT22;9799;48.214;16.388;2023-09-19T05:38:28;19.00;99.90
19330;DHT22;9799;48.214;16.388;2023-09-19T05:41:49;18.90;99.90
19330;DHT22;9799;48.214;16.388;2023-09-19T05:45:12;18.90;99.90
19330;DHT22;9799;48.214;16.388;2023-09-19T05:48:34;18.80;99.90
19330;DHT22;9799;48.214;16.388;2023-09-19T05:51:56;18.90;99.90
19330;DHT22;9799;48.214;16.388;2023-09-19T05:55:18;18.90;99.90
19330;DHT22;9799;48.214;16.388;2023-09-19T05:58:40;18.80;99.90
19330;DHT22;9799;48.214;16.388;2023-09-19T06:02:05;18.80;99.90
19330;DHT22;9799;48.214;16.388;2023-09-19T06:05:27;18.90;99.90
19330;DHT22;9799;48.214;16.388;2023-09-19T06:08:50;18.90;99.90
19330;DHT22;9799;48.214;16.388;2023-09-19T06:12:14;19.00;99.90
19330;DHT22;9799;48.214;16.388;2023-09-19T06:15:36;19.00;99.90
19330;DHT22;9799;48.214;16.388;2023-09-19T06:19:00;19.10;99.90
19330;DHT22;9799;48.214;16.388;2023-09-19T06:22:21;19.10;99.90
19330;DHT22;9799;48.214;16.388;2023-09-19T06:25:44;19.10;99.90
19330;DHT22;9799;48.214;16.388;2023-09-19T06:29:05;19.20;99.90
19330;DHT22;9799;48.214;16.388;2023-09-19T06:32:27;19.40;99.90
19330;DHT22;9799;48.214;16.388;2023-09-19T06:35:50;19.40;99.90
19330;DHT22;9799;48.214;16.388;2023-09-19T06:39:14;19.40;99.90
19330;DHT22;9799;48.214;16.388;2023-09-19T06:42:36;19.50;99.90
19330;DHT22;9799;48.214;16.388;2023-09-19T06:45:58;19.60;99.90
19330;DHT22;9799;48.214;16.388;2023-09-19T06:49:19;19.60;99.90
19330;DHT22;9799;48.214;16.388;2023-09-19T06:52:42;19.60;99.90
19330;DHT22;9799;48.214;16.388;2023-09-19T06:56:03;19.50;99.90
19330;DHT22;9799;48.214;16.388;2023-09-19T06:59:26;19.60;99.90
19330;DHT22;9799;48.214;16.388;2023-09-19T07:02:55;19.50;99.90
19330;DHT22;9799;48.214;16.388;2023-09-19T07:06:17;19.60;99.90
19330;DHT22;9799;48.214;16.388;2023-09-19T07:09:39;19.70;99.90
19330;DHT22;9799;48.214;16.388;2023-09-19T07:13:03;19.70;99.90
19330;DHT22;9799;48.214;16.388;2023-09-19T07:16:28;19.70;99.90
19330;DHT22;9799;48.214;16.388;2023-09-19T07:19:50;19.80;99.90
19330;DHT22;9799;48.214;16.388;2023-09-19T07:23:11;19.80;99.90
19330;DHT22;9799;48.214;16.388;2023-09-19T07:26:36;19.90;99.90
19330;DHT22;9799;48.214;16.388;2023-09-19T07:29:57;19.90;99.90
19330;DHT22;9799;48.214;16.388;2023-09-19T07:33:18;19.90;99.90
19330;DHT22;9799;48.214;16.388;2023-09-19T07:36:39;19.90;99.90
19330;DHT22;9799;48.214;16.388;2023-09-19T07:40:02;19.90;99.90
19330;DHT22;9799;48.214;16.388;2023-09-19T07:43:28;19.90;99.90
19330;DHT22;9799;48.214;16.388;2023-09-19T07:46:49;19.90;99.90
19330;DHT22;9799;48.214;16.388;2023-09-19T07:50:12;19.90;99.90
19330;DHT22;9799;48.214;16.388;2023-09-19T07:53:33;19.90;99.90
19330;DHT22;9799;48.214;16.388;2023-09-19T07:56:55;19.90;99.90
19330;DHT22;9799;48.214;16.388;2023-09-19T08:00:19;20.00;99.90
19330;DHT22;9799;48.214;16.388;2023-09-19T08:03:40;20.00;99.90
19330;DHT22;9799;48.214;16.388;2023-09-19T08:07:03;20.10;99.90
19330;DHT22;9799;48.214;16.388;2023-09-19T08:10:25;20.20;99.90
19330;DHT22;9799;48.214;16.388;2023-09-19T08:13:47;20.20;99.90
19330;DHT22;9799;48.214;16.388;2023-09-19T08:17:10;20.30;99.90
19330;DHT22;9799;48.214;16.388;2023-09-19T08:20:32;20.40;99.90
19330;DHT22;9799;48.214;16.388;2023-09-19T08:23:55;20.40;99.90
19330;DHT22;9799;48.214;16.388;2023-09-19T08:27:17;20.50;99.90
19330;DHT22;9799;48.214;16.388;2023-09-19T08:30:39;20.60;99.90
19330;DHT22;9799;48.214;16.388;2023-09-19T08:34:02;20.70;99.90
19330;DHT22;9799;48.214;16.388;2023-09-19T08:37:23;20.70;99.90
19330;DHT22;9799;48.214;16.388;2023-09-19T08:40:44;20.70;99.90
19330;DHT22;9799;48.214;16.388;2023-09-19T08:44:05;20.90;99.90
19330;DHT22;9799;48.214;16.388;2023-09-19T08:47:34;20.80;99.90
19330;DHT22;9799;48.214;16.388;2023-09-19T08:51:03;20.70;99.90
19330;DHT22;9799;48.214;16.388;2023-09-19T08:54:25;20.80;99.90
19330;DHT22;9799;48.214;16.388;2023-09-19T08:57:50;20.70;99.90
19330;DHT22;9799;48.214;16.388;2023-09-19T09:01:15;20.60;99.90
19330;DHT22;9799;48.214;16.388;2023-09-19T09:04:45;20.60;99.90
19330;DHT22;9799;48.214;16.388;2023-09-19T09:08:08;20.60;99.90
19330;DHT22;9799;48.214;16.388;2023-09-19T09:11:33;20.60;99.90
19330;DHT22;9799;48.214;16.388;2023-09-19T09:14:54;20.60;99.90
19330;DHT22;9799;48.214;16.388;2023-09-19T09:18:17;20.50;99.90
19330;DHT22;9799;48.214;16.388;2023-09-19T09:21:38;20.60;99.90
19330;DHT22;9799;48.214;16.388;2023-09-19T09:25:01;20.50;99.90
19330;DHT22;9799;48.214;16.388;2023-09-19T09:28:25;20.50;99.90
19330;DHT22;9799;48.214;16.388;2023-09-19T09:31:48;20.50;99.90
19330;DHT22;9799;48.214;16.388;2023-09-19T09:35:10;20.60;99.90
19330;DHT22;9799;48.214;16.388;2023-09-19T09:38:44;20.60;99.90
19330;DHT22;9799;48.214;16.388;2023-09-19T09:42:07;20.70;99.90
19330;DHT22;9799;48.214;16.388;2023-09-19T09:45:30;20.80;99.90
19330;DHT22;9799;48.214;16.388;2023-09-19T09:49:00;21.00;99.90
19330;DHT22;9799;48.214;16.388;2023-09-19T09:52:45;21.20;99.90
19330;DHT22;9799;48.214;16.388;2023-09-19T09:56:07;21.30;99.90
19330;DHT22;9799;48.214;16.388;2023-09-19T09:59:49;21.40;99.90
19330;DHT22;9799;48.214;16.388;2023-09-19T10:03:20;21.60;99.90
19330;DHT22;9799;48.214;16.388;2023-09-19T10:06:42;22.10;99.90
19330;DHT22;9799;48.214;16.388;2023-09-19T10:10:07;22.20;99.90
19330;DHT22;9799;48.214;16.388;2023-09-19T10:13:37;22.20;99.90
19330;DHT22;9799;48.214;16.388;2023-09-19T10:17:05;22.30;99.90
19330;DHT22;9799;48.214;16.388;2023-09-19T10:20:28;22.30;99.90
19330;DHT22;9799;48.214;16.388;2023-09-19T10:23:58;22.40;99.90
19330;DHT22;9799;48.214;16.388;2023-09-19T10:27:20;22.50;99.90
19330;DHT22;9799;48.214;16.388;2023-09-19T10:30:42;22.60;99.90
19330;DHT22;9799;48.214;16.388;2023-09-19T10:34:07;22.40;99.90
19330;DHT22;9799;48.214;16.388;2023-09-19T10:37:31;22.30;99.90
19330;DHT22;9799;48.214;16.388;2023-09-19T10:40:54;22.40;99.90
19330;DHT22;9799;48.214;16.388;2023-09-19T10:44:23;22.50;99.90
19330;DHT22;9799;48.214;16.388;2023-09-19T10:47:46;22.60;99.90
19330;DHT22;9799;48.214;16.388;2023-09-19T10:51:10;22.90;99.90
19330;DHT22;9799;48.214;16.388;2023-09-19T10:54:34;23.20;99.90
19330;DHT22;9799;48.214;16.388;2023-09-19T10:57:56;23.20;99.90
19330;DHT22;9799;48.214;16.388;2023-09-19T11:01:42;23.40;99.90
19330;DHT22;9799;48.214;16.388;2023-09-19T11:05:12;23.50;99.90
19330;DHT22;9799;48.214;16.388;2023-09-19T11:08:53;23.50;99.90
19330;DHT22;9799;48.214;16.388;2023-09-19T11:12:48;23.60;99.90
19330;DHT22;9799;48.214;16.388;2023-09-19T11:16:18;23.80;99.90
19330;DHT22;9799;48.214;16.388;2023-09-19T11:20:22;23.80;99.90
19330;DHT22;9799;48.214;16.388;2023-09-19T11:24:30;23.80;99.90
19330;DHT22;9799;48.214;16.388;2023-09-19T11:28:28;23.60;99.90
19330;DHT22;9799;48.214;16.388;2023-09-19T11:31:51;23.30;99.90
19330;DHT22;9799;48.214;16.388;2023-09-19T11:35:16;23.20;99.90
19330;DHT22;9799;48.214;16.388;2023-09-19T11:38:58;23.10;99.90
19330;DHT22;9799;48.214;16.388;2023-09-19T11:42:43;23.10;99.90
19330;DHT22;9799;48.214;16.388;2023-09-19T11:46:05;23.20;99.90
19330;DHT22;9799;48.214;16.388;2023-09-19T11:49:28;23.30;99.90
19330;DHT22;9799;48.214;16.388;2023-09-19T11:52:53;23.50;99.90
19330;DHT22;9799;48.214;16.388;2023-09-19T11:56:16;23.70;99.90
19330;DHT22;9799;48.214;16.388;2023-09-19T11:59:39;23.80;99.90
19330;DHT22;9799;48.214;16.388;2023-09-19T12:03:05;23.90;99.90
19330;DHT22;9799;48.214;16.388;2023-09-19T12:06:30;23.80;99.90
19330;DHT22;9799;48.214;16.388;2023-09-19T12:10:04;23.70;99.90
19330;DHT22;9799;48.214;16.388;2023-09-19T12:13:30;23.90;99.90
19330;DHT22;9799;48.214;16.388;2023-09-19T12:16:57;24.10;99.90
19330;DHT22;9799;48.214;16.388;2023-09-19T12:20:21;24.20;99.90
19330;DHT22;9799;48.214;16.388;2023-09-19T12:23:42;24.20;99.90
19330;DHT22;9799;48.214;16.388;2023-09-19T12:27:04;24.00;99.90
19330;DHT22;9799;48.214;16.388;2023-09-19T12:30:27;23.90;99.90
19330;DHT22;9799;48.214;16.388;2023-09-19T12:33:57;24.10;99.90
19330;DHT22;9799;48.214;16.388;2023-09-19T12:37:21;24.20;99.90
19330;DHT22;9799;48.214;16.388;2023-09-19T12:40:42;24.30;99.90
19330;DHT22;9799;48.214;16.388;2023-09-19T12:44:05;24.40;99.90
19330;DHT22;9799;48.214;16.388;2023-09-19T12:47:29;24.30;99.90
19330;DHT22;9799;48.214;16.388;2023-09-19T12:51:02;24.50;99.90
19330;DHT22;9799;48.214;16.388;2023-09-19T12:54:25;24.60;99.90
19330;DHT22;9799;48.214;16.388;2023-09-19T12:57:58;24.80;99.90
19330;DHT22;9799;48.214;16.388;2023-09-19T13:01:20;24.60;99.90
19330;DHT22;9799;48.214;16.388;2023-09-19T13:04:52;24.30;99.90
19330;DHT22;9799;48.214;16.388;2023-09-19T13:08:23;24.30;99.90
19330;DHT22;9799;48.214;16.388;2023-09-19T13:11:46;24.20;99.90
19330;DHT22;9799;48.214;16.388;2023-09-19T13:15:14;24.30;99.90
19330;DHT22;9799;48.214;16.388;2023-09-19T13:18:42;24.60;99.90
19330;DHT22;9799;48.214;16.388;2023-09-19T13:22:04;24.80;99.90
19330;DHT22;9799;48.214;16.388;2023-09-19T13:25:29;24.60;99.90
19330;DHT22;9799;48.214;16.388;2023-09-19T13:28:52;24.30;99.90
19330;DHT22;9799;48.214;16.388;2023-09-19T13:32:14;24.00;99.90
19330;DHT22;9799;48.214;16.388;2023-09-19T13:35:35;23.80;99.90
19330;DHT22;9799;48.214;16.388;2023-09-19T13:38:58;23.90;99.90
19330;DHT22;9799;48.214;16.388;2023-09-19T13:42:21;24.20;99.90
19330;DHT22;9799;48.214;16.388;2023-09-19T13:45:45;24.40;99.90
19330;DHT22;9799;48.214;16.388;2023-09-19T13:49:06;24.40;99.90
19330;DHT22;9799;48.214;16.388;2023-09-19T13:52:28;24.20;99.90
19330;DHT22;9799;48.214;16.388;2023-09-19T13:55:50;23.90;99.90
19330;DHT22;9799;48.214;16.388;2023-09-19T13:59:13;23.70;99.90
19330;DHT22;9799;48.214;16.388;2023-09-19T14:02:34;23.80;99.90
19330;DHT22;9799;48.214;16.388;2023-09-19T14:05:55;23.80;99.90
19330;DHT22;9799;48.214;16.388;2023-09-19T14:09:16;23.80;99.90
19330;DHT22;9799;48.214;16.388;2023-09-19T14:12:39;23.70;99.90
19330;DHT22;9799;48.214;16.388;2023-09-19T14:16:04;23.60;99.90
19330;DHT22;9799;48.214;16.388;2023-09-19T14:19:26;23.70;99.90
19330;DHT22;9799;48.214;16.388;2023-09-19T14:22:47;23.70;99.90
19330;DHT22;9799;48.214;16.388;2023-09-19T14:26:08;23.70;99.90
19330;DHT22;9799;48.214;16.388;2023-09-19T14:29:30;23.90;99.90
19330;DHT22;9799;48.214;16.388;2023-09-19T14:32:53;24.00;99.90
19330;DHT22;9799;48.214;16.388;2023-09-19T14:36:14;24.00;99.90
19330;DHT22;9799;48.214;16.388;2023-09-19T14:39:40;24.00;99.90
19330;DHT22;9799;48.214;16.388;2023-09-19T14:43:04;24.00;99.90
19330;DHT22;9799;48.214;16.388;2023-09-19T14:46:28;24.10;99.90
19330;DHT22;9799;48.214;16.388;2023-09-19T14:49:51;24.00;99.90
19330;DHT22;9799;48.214;16.388;2023-09-19T14:53:12;24.00;99.90
19330;DHT22;9799;48.214;16.388;2023-09-19T14:56:33;24.00;99.90
19330;DHT22;9799;48.214;16.388;2023-09-19T14:59:55;24.00;99.90
19330;DHT22;9799;48.214;16.388;2023-09-19T15:03:16;24.00;99.90
19330;DHT22;9799;48.214;16.388;2023-09-19T15:06:39;24.10;99.90
19330;DHT22;9799;48.214;16.388;2023-09-19T15:10:04;24.10;99.90
19330;DHT22;9799;48.214;16.388;2023-09-19T15:13:26;24.00;99.90
19330;DHT22;9799;48.214;16.388;2023-09-19T15:16:50;23.90;99.90
19330;DHT22;9799;48.214;16.388;2023-09-19T15:20:12;23.90;99.90
19330;DHT22;9799;48.214;16.388;2023-09-19T15:23:37;23.90;99.90
19330;DHT22;9799;48.214;16.388;2023-09-19T15:26:59;23.90;99.90
19330;DHT22;9799;48.214;16.388;2023-09-19T15:30:21;23.80;99.90
19330;DHT22;9799;48.214;16.388;2023-09-19T15:33:43;23.80;99.90
19330;DHT22;9799;48.214;16.388;2023-09-19T15:37:05;23.80;99.90
19330;DHT22;9799;48.214;16.388;2023-09-19T15:40:29;23.70;99.90
19330;DHT22;9799;48.214;16.388;2023-09-19T15:43:51;23.70;99.90
19330;DHT22;9799;48.214;16.388;2023-09-19T15:47:14;23.70;99.90
19330;DHT22;9799;48.214;16.388;2023-09-19T15:50:38;23.70;99.90
19330;DHT22;9799;48.214;16.388;2023-09-19T15:54:02;23.60;99.90
19330;DHT22;9799;48.214;16.388;2023-09-19T15:57:29;23.60;99.90
19330;DHT22;9799;48.214;16.388;2023-09-19T16:00:51;23.50;99.90
19330;DHT22;9799;48.214;16.388;2023-09-19T16:04:13;23.50;99.90
19330;DHT22;9799;48.214;16.388;2023-09-19T16:07:37;23.50;99.90
19330;DHT22;9799;48.214;16.388;2023-09-19T16:10:59;23.50;99.90
19330;DHT22;9799;48.214;16.388;2023-09-19T16:14:23;23.40;99.90
19330;DHT22;9799;48.214;16.388;2023-09-19T16:17:47;23.40;99.90
19330;DHT22;9799;48.214;16.388;2023-09-19T16:21:08;23.30;99.90
19330;DHT22;9799;48.214;16.388;2023-09-19T16:24:31;23.20;99.90
19330;DHT22;9799;48.214;16.388;2023-09-19T16:27:52;23.20;99.90
19330;DHT22;9799;48.214;16.388;2023-09-19T16:31:15;23.20;99.90
19330;DHT22;9799;48.214;16.388;2023-09-19T16:34:38;23.10;99.90
19330;DHT22;9799;48.214;16.388;2023-09-19T16:38:00;23.10;99.90
19330;DHT22;9799;48.214;16.388;2023-09-19T16:41:21;23.00;99.90
19330;DHT22;9799;48.214;16.388;2023-09-19T16:44:44;22.90;99.90
19330;DHT22;9799;48.214;16.388;2023-09-19T16:48:07;22.80;99.90
19330;DHT22;9799;48.214;16.388;2023-09-19T16:51:29;22.80;99.90
19330;DHT22;9799;48.214;16.388;2023-09-19T16:54:50;22.60;99.90
19330;DHT22;9799;48.214;16.388;2023-09-19T16:58:14;22.60;99.90
19330;DHT22;9799;48.214;16.388;2023-09-19T17:01:36;22.50;99.90
19330;DHT22;9799;48.214;16.388;2023-09-19T17:05:00;22.50;99.90
19330;DHT22;9799;48.214;16.388;2023-09-19T17:08:23;22.50;99.90
19330;DHT22;9799;48.214;16.388;2023-09-19T17:11:46;22.40;99.90
19330;DHT22;9799;48.214;16.388;2023-09-19T17:15:08;22.30;99.90
19330;DHT22;9799;48.214;16.388;2023-09-19T17:18:31;22.30;99.90
19330;DHT22;9799;48.214;16.388;2023-09-19T17:21:55;22.30;99.90
19330;DHT22;9799;48.214;16.388;2023-09-19T17:25:17;22.30;99.90
19330;DHT22;9799;48.214;16.388;2023-09-19T17:28:40;22.20;99.90
19330;DHT22;9799;48.214;16.388;2023-09-19T17:32:04;22.20;99.90
19330;DHT22;9799;48.214;16.388;2023-09-19T17:35:27;22.20;99.90
19330;DHT22;9799;48.214;16.388;2023-09-19T17:38:54;22.10;99.90
19330;DHT22;9799;48.214;16.388;2023-09-19T17:42:17;22.10;99.90
19330;DHT22;9799;48.214;16.388;2023-09-19T17:45:39;22.10;99.90
19330;DHT22;9799;48.214;16.388;2023-09-19T17:49:03;22.10;99.90
19330;DHT22;9799;48.214;16.388;2023-09-19T17:52:28;22.00;99.90
19330;DHT22;9799;48.214;16.388;2023-09-19T17:55:55;22.10;99.90
19330;DHT22;9799;48.214;16.388;2023-09-19T17:59:17;22.00;99.90
19330;DHT22;9799;48.214;16.388;2023-09-19T18:02:39;22.00;99.90
19330;DHT22;9799;48.214;16.388;2023-09-19T18:06:04;22.00;99.90
19330;DHT22;9799;48.214;16.388;2023-09-19T18:09:33;21.90;99.90
19330;DHT22;9799;48.214;16.388;2023-09-19T18:13:00;21.80;99.90
19330;DHT22;9799;48.214;16.388;2023-09-19T18:16:25;21.80;99.90
19330;DHT22;9799;48.214;16.388;2023-09-19T18:19:53;21.80;99.90
19330;DHT22;9799;48.214;16.388;2023-09-19T18:23:17;21.80;99.90
19330;DHT22;9799;48.214;16.388;2023-09-19T18:26:39;21.80;99.90
19330;DHT22;9799;48.214;16.388;2023-09-19T18:30:03;21.70;99.90
19330;DHT22;9799;48.214;16.388;2023-09-19T18:33:28;21.70;99.90
19330;DHT22;9799;48.214;16.388;2023-09-19T18:36:51;21.70;99.90
19330;DHT22;9799;48.214;16.388;2023-09-19T18:40:14;21.70;99.90
19330;DHT22;9799;48.214;16.388;2023-09-19T18:43:38;21.60;99.90
19330;DHT22;9799;48.214;16.388;2023-09-19T18:47:03;21.60;99.90
19330;DHT22;9799;48.214;16.388;2023-09-19T18:50:27;21.60;99.90
19330;DHT22;9799;48.214;16.388;2023-09-19T18:53:50;21.50;99.90
19330;DHT22;9799;48.214;16.388;2023-09-19T18:57:12;21.50;99.90
19330;DHT22;9799;48.214;16.388;2023-09-19T19:00:35;21.50;99.90
19330;DHT22;9799;48.214;16.388;2023-09-19T19:04:02;21.40;99.90
19330;DHT22;9799;48.214;16.388;2023-09-19T19:07:25;21.40;99.90
19330;DHT22;9799;48.214;16.388;2023-09-19T19:10:48;21.30;99.90
19330;DHT22;9799;48.214;16.388;2023-09-19T19:14:10;21.30;99.90
19330;DHT22;9799;48.214;16.388;2023-09-19T19:17:34;21.30;99.90
19330;DHT22;9799;48.214;16.388;2023-09-19T19:21:00;21.20;99.90
19330;DHT22;9799;48.214;16.388;2023-09-19T19:24:24;21.20;99.90
19330;DHT22;9799;48.214;16.388;2023-09-19T19:27:48;21.10;99.90
19330;DHT22;9799;48.214;16.388;2023-09-19T19:31:10;21.10;99.90
19330;DHT22;9799;48.214;16.388;2023-09-19T19:34:33;21.00;99.90
19330;DHT22;9799;48.214;16.388;2023-09-19T19:37:57;21.10;99.90
19330;DHT22;9799;48.214;16.388;2023-09-19T19:41:20;20.90;99.90
19330;DHT22;9799;48.214;16.388;2023-09-19T19:44:44;20.90;99.90
19330;DHT22;9799;48.214;16.388;2023-09-19T19:48:08;20.90;99.90
19330;DHT22;9799;48.214;16.388;2023-09-19T19:51:31;20.90;99.90
19330;DHT22;9799;48.214;16.388;2023-09-19T19:54:57;20.90;99.90
19330;DHT22;9799;48.214;16.388;2023-09-19T19:58:19;20.90;99.90
19330;DHT22;9799;48.214;16.388;2023-09-19T20:01:41;20.80;99.90
19330;DHT22;9799;48.214;16.388;2023-09-19T20:05:04;20.80;99.90
19330;DHT22;9799;48.214;16.388;2023-09-19T20:08:27;20.70;99.90
19330;DHT22;9799;48.214;16.388;2023-09-19T20:11:51;20.70;99.90
19330;DHT22;9799;48.214;16.388;2023-09-19T20:15:14;20.70;99.90
19330;DHT22;9799;48.214;16.388;2023-09-19T20:18:39;20.80;99.90
19330;DHT22;9799;48.214;16.388;2023-09-19T20:22:03;20.70;99.90
19330;DHT22;9799;48.214;16.388;2023-09-19T20:25:28;20.80;99.90
19330;DHT22;9799;48.214;16.388;2023-09-19T20:28:52;20.80;99.90
19330;DHT22;9799;48.214;16.388;2023-09-19T20:32:14;20.80;99.90
19330;DHT22;9799;48.214;16.388;2023-09-19T20:35:38;20.80;99.90
19330;DHT22;9799;48.214;16.388;2023-09-19T20:39:01;20.80;99.90
19330;DHT22;9799;48.214;16.388;2023-09-19T20:42:25;20.70;99.90
19330;DHT22;9799;48.214;16.388;2023-09-19T20:45:49;20.70;99.90
19330;DHT22;9799;48.214;16.388;2023-09-19T20:49:13;20.70;99.90
19330;DHT22;9799;48.214;16.388;2023-09-19T20:52:36;20.70;99.90
19330;DHT22;9799;48.214;16.388;2023-09-19T20:56:01;20.60;99.90
19330;DHT22;9799;48.214;16.388;2023-09-19T20:59:22;20.60;99.90
19330;DHT22;9799;48.214;16.388;2023-09-19T21:02:47;20.60;99.90
19330;DHT22;9799;48.214;16.388;2023-09-19T21:06:09;20.60;99.90
19330;DHT22;9799;48.214;16.388;2023-09-19T21:09:33;20.60;99.90
19330;DHT22;9799;48.214;16.388;2023-09-19T21:12:54;20.60;99.90
19330;DHT22;9799;48.214;16.388;2023-09-19T21:16:18;20.60;99.90
19330;DHT22;9799;48.214;16.388;2023-09-19T21:19:42;20.60;99.90
19330;DHT22;9799;48.214;16.388;2023-09-19T21:23:03;20.60;99.90
19330;DHT22;9799;48.214;16.388;2023-09-19T21:26:29;20.50;99.90
19330;DHT22;9799;48.214;16.388;2023-09-19T21:29:51;20.60;99.90